createdAt,value
2019-04-03T00:01:06.715Z,11.36
2019-04-03T00:03:38.487Z,11.16
2019-04-03T00:06:11.877Z,11.13
2019-04-03T00:08:43.639Z,11.10
2019-04-03T00:11:15.477Z,10.91
2019-04-03T00:13:47.136Z,10.74
2019-04-03T00:16:18.848Z,10.60
2019-04-03T00:18:50.563Z,10.47
2019-04-03T00:21:22.309Z,10.40
2019-04-03T00:23:54.995Z,10.33
2019-04-03T00:26:26.761Z,10.13
2019-04-03T00:28:58.661Z,10.01
2019-04-03T00:31:30.424Z,9.92
2019-04-03T00:34:02.125Z,9.78
2019-04-03T00:36:33.841Z,9.80
2019-04-03T00:39:07.745Z,9.81
2019-04-03T00:41:39.515Z,9.84
2019-04-03T00:44:11.585Z,9.89
2019-04-03T00:46:43.353Z,9.78
2019-04-03T00:49:15.087Z,9.64
2019-04-03T00:51:46.894Z,9.27
2019-04-03T00:54:18.634Z,9.06
2019-04-03T00:56:50.346Z,9.01
2019-04-03T00:59:22.364Z,8.89
2019-04-03T01:01:56.061Z,8.83
2019-04-03T01:04:28.809Z,8.75
2019-04-03T01:07:01.308Z,8.70
2019-04-03T01:09:32.993Z,8.56
2019-04-03T01:12:04.692Z,8.60
2019-04-03T01:14:36.374Z,8.53
2019-04-03T01:17:08.071Z,8.60
2019-04-03T01:19:40.147Z,8.69
2019-04-03T01:22:11.802Z,8.65
2019-04-03T01:24:43.505Z,8.50
2019-04-03T01:27:15.203Z,8.39
2019-04-03T01:29:47.040Z,8.27
2019-04-03T01:32:18.473Z,8.17
2019-04-03T01:34:50.166Z,8.04
2019-04-03T01:37:22.132Z,8.06
2019-04-03T01:39:54.430Z,8.03
2019-04-03T01:42:26.121Z,8.03
2019-04-03T01:44:57.797Z,7.98
2019-04-03T01:47:30.133Z,7.97
2019-04-03T01:50:01.830Z,7.99
2019-04-03T01:52:33.511Z,7.97
2019-04-03T01:55:05.534Z,7.83
2019-04-03T01:57:37.434Z,7.80
2019-04-03T02:00:10.289Z,7.92
2019-04-03T02:02:42.446Z,7.90
2019-04-03T02:05:14.270Z,7.90
2019-04-03T02:07:46.165Z,7.90
2019-04-03T02:10:20.154Z,7.91
2019-04-03T02:12:51.928Z,7.95
2019-04-03T02:15:23.932Z,7.97
2019-04-03T02:17:56.062Z,7.99
2019-04-03T02:20:27.767Z,8.00
2019-04-03T02:23:00.486Z,8.01
2019-04-03T02:25:32.585Z,8.11
2019-04-03T02:28:04.563Z,8.12
2019-04-03T02:30:36.720Z,8.18
2019-04-03T02:33:08.489Z,8.24
2019-04-03T02:35:40.943Z,8.30
2019-04-03T02:38:12.812Z,8.34
2019-04-03T02:40:44.574Z,8.31
2019-04-03T02:43:16.650Z,8.60
2019-04-03T02:45:48.730Z,8.61
2019-04-03T02:48:20.693Z,8.63
2019-04-03T02:50:52.944Z,8.31
2019-04-03T02:53:24.893Z,8.47
2019-04-03T02:55:56.710Z,8.51
2019-04-03T02:58:28.448Z,8.38
2019-04-03T03:01:00.524Z,8.20
2019-04-03T03:03:32.458Z,8.23
2019-04-03T03:06:04.472Z,8.25
2019-04-03T03:08:40.742Z,8.17
2019-04-03T03:11:10.323Z,8.22
2019-04-03T03:13:42.293Z,8.14
2019-04-03T03:16:17.327Z,8.16
2019-04-03T03:18:48.257Z,8.17
2019-04-03T03:21:21.488Z,8.15
2019-04-03T03:23:56.220Z,8.08
2019-04-03T03:26:27.545Z,8.05
2019-04-03T03:29:15.383Z,8.01
2019-04-03T03:31:59.676Z,8.02
2019-04-03T03:34:07.931Z,7.94
2019-04-03T03:36:41.566Z,7.91
2019-04-03T03:39:14.833Z,7.90
2019-04-03T03:41:47.167Z,7.92
2019-04-03T03:44:21.599Z,7.88
2019-04-03T03:46:55.118Z,7.90
2019-04-03T03:49:27.837Z,7.88
2019-04-03T03:52:03.966Z,7.89
2019-04-03T03:54:35.099Z,7.89
2019-04-03T03:57:07.528Z,7.89
2019-04-03T03:59:40.860Z,7.79
2019-04-03T04:02:12.749Z,7.82
2019-04-03T04:04:48.156Z,7.88
2019-04-03T04:07:18.360Z,7.83
2019-04-03T04:09:53.241Z,7.87
2019-04-03T04:12:25.757Z,7.84
2019-04-03T04:14:58.992Z,7.89
2019-04-03T04:17:31.067Z,7.91
2019-04-03T04:20:05.317Z,7.95
2019-04-03T04:22:37.323Z,7.98
2019-04-03T04:25:09.775Z,7.98
2019-04-03T04:27:43.363Z,8.00
2019-04-03T04:30:19.643Z,8.01
2019-04-03T04:32:51.399Z,8.01
2019-04-03T04:35:23.325Z,8.03
2019-04-03T04:37:55.971Z,8.02
2019-04-03T04:40:28.978Z,7.99
2019-04-03T04:43:04.161Z,7.95
2019-04-03T04:45:35.921Z,7.86
2019-04-03T04:48:07.838Z,7.89
2019-04-03T04:50:39.643Z,7.88
2019-04-03T04:53:12.049Z,7.86
2019-04-03T04:55:43.842Z,7.86
2019-04-03T04:58:15.580Z,7.80
2019-04-03T05:00:47.849Z,7.86
2019-04-03T05:03:21.854Z,8.16
2019-04-03T05:05:53.546Z,8.24
2019-04-03T05:08:25.368Z,8.31
2019-04-03T05:10:57.233Z,8.40
2019-04-03T05:13:29.181Z,8.29
2019-04-03T05:16:00.976Z,8.35
2019-04-03T05:18:32.787Z,8.50
2019-04-03T05:21:05.274Z,8.51
2019-04-03T05:23:37.207Z,8.63
2019-04-03T05:26:08.924Z,8.53
2019-04-03T05:28:53.311Z,8.60
2019-04-03T05:31:14.324Z,8.60
2019-04-03T05:33:46.208Z,8.57
2019-04-03T05:36:18.400Z,8.58
2019-04-03T05:38:51.047Z,8.39
2019-04-03T05:41:23.660Z,8.52
2019-04-03T05:43:55.398Z,8.60
2019-04-03T05:46:27.125Z,8.67
2019-04-03T05:49:00.168Z,8.57
2019-04-03T05:51:32.018Z,8.63
2019-04-03T05:54:03.800Z,8.38
2019-04-03T05:56:35.616Z,8.46
2019-04-03T05:59:08.681Z,8.65
2019-04-03T06:01:41.959Z,8.50
2019-04-03T06:04:14.006Z,8.60
2019-04-03T06:06:46.881Z,8.48
2019-04-03T06:09:20.089Z,8.66
2019-04-03T06:11:52.857Z,8.58
2019-04-03T06:14:24.627Z,8.66
2019-04-03T06:16:57.724Z,8.56
2019-04-03T06:19:29.474Z,8.58
2019-04-03T06:22:01.368Z,8.63
2019-04-03T06:24:33.106Z,8.71
2019-04-03T06:27:05.001Z,8.79
2019-04-03T06:29:36.795Z,8.85
2019-04-03T06:32:08.593Z,8.70
2019-04-03T06:34:43.331Z,8.90
2019-04-03T06:37:14.263Z,8.86
2019-04-03T06:39:46.005Z,8.93
2019-04-03T06:42:18.008Z,8.93
2019-04-03T06:44:52.753Z,8.93
2019-04-03T06:47:23.263Z,8.98
2019-04-03T06:49:54.997Z,8.98
2019-04-03T06:52:26.805Z,9.03
2019-04-03T06:54:58.594Z,9.18
2019-04-03T06:57:30.323Z,9.18
2019-04-03T07:00:02.297Z,9.22
2019-04-03T07:02:34.383Z,9.36
2019-04-03T07:05:09.637Z,9.43
2019-04-03T07:07:40.167Z,9.57
2019-04-03T07:10:24.488Z,9.63
2019-04-03T07:12:47.833Z,9.71
2019-04-03T07:15:19.010Z,9.74
2019-04-03T07:17:52.007Z,9.83
2019-04-03T07:20:23.973Z,9.88
2019-04-03T07:22:56.977Z,10.03
2019-04-03T07:25:29.149Z,10.09
2019-04-03T07:28:00.867Z,10.14
2019-04-03T07:30:32.664Z,10.11
2019-04-03T07:33:05.802Z,10.17
2019-04-03T07:35:40.222Z,10.19
2019-04-03T07:38:12.749Z,10.17
2019-04-03T07:40:44.558Z,10.24
2019-04-03T07:43:16.533Z,10.29
2019-04-03T07:45:48.254Z,10.35
2019-04-03T07:48:20.049Z,10.39
2019-04-03T07:50:51.860Z,10.45
2019-04-03T07:53:23.594Z,10.50
2019-04-03T07:55:55.975Z,10.56
2019-04-03T07:58:30.531Z,10.62
2019-04-03T08:01:01.415Z,10.67
2019-04-03T08:03:33.210Z,10.72
2019-04-03T08:06:05.629Z,10.75
2019-04-03T08:08:37.341Z,10.86
2019-04-03T08:11:09.153Z,10.85
2019-04-03T08:13:40.871Z,10.81
2019-04-03T08:16:15.130Z,10.79
2019-04-03T08:18:46.323Z,10.78
2019-04-03T08:21:18.060Z,10.71
2019-04-03T08:23:50.029Z,10.91
2019-04-03T08:26:21.806Z,10.96
2019-04-03T08:28:53.647Z,11.00
2019-04-03T08:31:25.723Z,11.15
2019-04-03T08:33:59.517Z,11.35
2019-04-03T08:36:30.942Z,11.43
2019-04-03T08:39:03.309Z,11.51
2019-04-03T08:41:37.793Z,11.42
2019-04-03T08:44:09.841Z,11.56
2019-04-03T08:46:43.884Z,11.51
2019-04-03T08:49:15.152Z,11.65
2019-04-03T08:51:46.917Z,11.74
2019-04-03T08:54:18.790Z,11.84
2019-04-03T08:56:50.851Z,11.82
2019-04-03T08:59:22.647Z,12.03
2019-04-03T09:01:55.760Z,12.11
2019-04-03T09:04:28.241Z,12.24
2019-04-03T09:07:00.092Z,12.44
2019-04-03T09:09:34.894Z,12.34
2019-04-03T09:12:07.298Z,12.50
2019-04-03T09:14:39.295Z,12.65
2019-04-03T09:17:11.372Z,12.66
2019-04-03T09:19:43.179Z,12.72
2019-04-03T09:22:14.981Z,12.70
2019-04-03T09:24:46.710Z,12.57
2019-04-03T09:27:18.445Z,12.60
2019-04-03T09:29:50.167Z,12.53
2019-04-03T09:32:22.743Z,12.47
2019-04-03T09:34:55.356Z,12.48
2019-04-03T09:37:27.094Z,12.51
2019-04-03T09:39:58.838Z,12.50
2019-04-03T09:42:30.574Z,12.33
2019-04-03T09:45:02.383Z,12.23
2019-04-03T09:47:34.930Z,12.31
2019-04-03T09:50:10.114Z,12.29
2019-04-03T09:52:48.469Z,12.33
2019-04-03T09:55:15.485Z,12.24
2019-04-03T09:57:47.282Z,12.22
2019-04-03T10:00:19.390Z,12.10
2019-04-03T10:02:51.967Z,12.10
2019-04-03T10:05:23.848Z,12.25
2019-04-03T10:07:56.081Z,12.16
2019-04-03T10:10:28.131Z,12.09
2019-04-03T10:13:00.017Z,12.10
2019-04-03T10:15:32.030Z,12.08
2019-04-03T10:18:04.123Z,12.12
2019-04-03T10:20:36.680Z,12.12
2019-04-03T10:23:08.670Z,11.93
2019-04-03T10:25:40.659Z,11.89
2019-04-03T10:28:14.772Z,11.89
2019-04-03T10:30:46.267Z,11.91
2019-04-03T10:33:18.054Z,11.92
2019-04-03T10:35:50.066Z,11.87
2019-04-03T10:38:22.015Z,11.83
2019-04-03T10:40:56.223Z,11.85
2019-04-03T10:43:27.380Z,11.86
2019-04-03T10:45:59.099Z,11.88
2019-04-03T10:48:30.988Z,11.93
2019-04-03T10:51:02.900Z,12.07
2019-04-03T10:53:34.640Z,12.27
2019-04-03T10:56:07.930Z,12.67
2019-04-03T10:58:42.193Z,12.81
2019-04-03T11:01:13.873Z,13.04
2019-04-03T11:03:45.695Z,13.30
2019-04-03T11:06:17.496Z,13.08
2019-04-03T11:08:49.314Z,13.00
2019-04-03T11:11:21.302Z,12.89
2019-04-03T11:13:54.461Z,13.05
2019-04-03T11:16:26.331Z,13.39
2019-04-03T11:19:02.725Z,13.48
2019-04-03T11:21:32.219Z,13.90
2019-04-03T11:24:06.210Z,14.42
2019-04-03T11:26:38.334Z,14.67
2019-04-03T11:29:10.554Z,14.83
2019-04-03T11:31:43.354Z,15.01
2019-04-03T11:34:17.313Z,14.64
2019-04-03T11:36:48.588Z,14.49
2019-04-03T11:39:20.332Z,14.83
2019-04-03T11:41:54.533Z,14.57
2019-04-03T11:44:25.668Z,14.56
2019-04-03T11:46:57.446Z,14.50
2019-04-03T11:49:29.324Z,14.61
2019-04-03T11:52:01.921Z,14.57
2019-04-03T11:54:34.030Z,14.70
2019-04-03T11:57:06.541Z,15.13
2019-04-03T11:59:38.306Z,14.89
2019-04-03T12:02:12.112Z,14.71
2019-04-03T12:04:44.648Z,14.60
2019-04-03T12:07:16.795Z,14.50
2019-04-03T12:09:48.602Z,14.39
2019-04-03T12:12:20.311Z,14.27
2019-04-03T12:14:52.208Z,14.65
2019-04-03T12:17:23.941Z,14.96
2019-04-03T12:19:55.764Z,15.52
2019-04-03T12:22:27.592Z,15.56
2019-04-03T12:24:59.391Z,16.02
2019-04-03T12:27:31.277Z,16.14
2019-04-03T12:30:03.409Z,16.24
2019-04-03T12:32:38.508Z,16.12
2019-04-03T12:35:09.724Z,15.93
2019-04-03T12:37:42.425Z,16.02
2019-04-03T12:40:14.823Z,16.33
2019-04-03T12:42:46.510Z,16.52
2019-04-03T12:45:18.831Z,16.30
2019-04-03T12:47:50.963Z,16.62
2019-04-03T12:50:26.537Z,16.86
2019-04-03T12:52:57.110Z,17.16
2019-04-03T12:55:29.169Z,17.39
2019-04-03T12:58:02.361Z,17.11
2019-04-03T13:00:34.766Z,17.50
2019-04-03T13:03:06.679Z,17.56
2019-04-03T13:05:38.683Z,17.84
2019-04-03T13:08:12.081Z,18.05
2019-04-03T13:10:47.876Z,18.44
2019-04-03T13:13:18.152Z,18.13
2019-04-03T13:15:50.027Z,18.76
2019-04-03T13:18:22.129Z,18.11
2019-04-03T13:20:54.208Z,18.41
2019-04-03T13:23:25.958Z,18.28
2019-04-03T13:25:57.789Z,18.79
2019-04-03T13:28:29.509Z,18.88
2019-04-03T13:31:01.245Z,18.74
2019-04-03T13:33:32.963Z,19.16
2019-04-03T13:36:05.283Z,19.21
2019-04-03T13:38:37.058Z,19.72
2019-04-03T13:41:10.661Z,19.69
2019-04-03T13:43:42.553Z,19.44
2019-04-03T13:46:15.511Z,19.48
2019-04-03T13:48:47.322Z,19.47
2019-04-03T13:51:19.949Z,19.87
2019-04-03T13:53:53.008Z,19.97
2019-04-03T13:56:25.684Z,19.70
2019-04-03T13:58:57.981Z,19.68
2019-04-03T14:01:30.045Z,19.78
2019-04-03T14:04:01.885Z,20.19
2019-04-03T14:06:36.229Z,20.51
2019-04-03T14:09:08.797Z,20.11
2019-04-03T14:11:41.067Z,20.44
2019-04-03T14:14:15.729Z,20.69
2019-04-03T14:16:46.722Z,20.99
2019-04-03T14:19:18.926Z,21.09
2019-04-03T14:21:50.871Z,21.24
2019-04-03T14:24:22.602Z,21.46
2019-04-03T14:26:54.378Z,21.46
2019-04-03T14:29:28.883Z,21.63
2019-04-03T14:31:59.829Z,21.96
2019-04-03T14:34:31.630Z,22.20
2019-04-03T14:37:03.362Z,22.15
2019-04-03T14:39:35.389Z,21.71
2019-04-03T14:42:08.160Z,21.66
2019-04-03T14:44:40.516Z,21.34
2019-04-03T14:47:13.617Z,21.07
2019-04-03T14:49:45.300Z,20.42
2019-04-03T14:52:17.658Z,20.30
2019-04-03T14:54:49.610Z,19.90
2019-04-03T14:57:23.636Z,19.56
2019-04-03T14:59:55.452Z,19.35
2019-04-03T15:02:27.196Z,19.11
2019-04-03T15:04:59.087Z,18.83
2019-04-03T15:07:30.936Z,18.58
2019-04-03T15:10:03.082Z,18.36
2019-04-03T15:12:38.629Z,18.24
2019-04-03T15:15:10.240Z,18.10
2019-04-03T15:17:42.053Z,17.91
2019-04-03T15:20:16.916Z,17.84
2019-04-03T15:22:47.777Z,17.74
2019-04-03T15:25:20.852Z,17.68
2019-04-03T15:27:52.820Z,17.73
2019-04-03T15:30:25.824Z,17.73
2019-04-03T15:32:57.971Z,17.80
2019-04-03T15:35:32.172Z,17.74
2019-04-03T15:38:04.168Z,17.73
2019-04-03T15:40:36.278Z,17.64
2019-04-03T15:43:10.832Z,17.50
2019-04-03T15:45:42.122Z,17.53
2019-04-03T15:48:13.942Z,17.44
2019-04-03T15:50:45.742Z,17.31
2019-04-03T15:53:17.992Z,17.33
2019-04-03T15:55:50.117Z,17.11
2019-04-03T15:58:22.853Z,17.08
2019-04-03T16:00:55.313Z,17.00
2019-04-03T16:03:27.467Z,16.95
2019-04-03T16:06:03.504Z,16.89
2019-04-03T16:08:34.313Z,16.86
2019-04-03T16:11:06.200Z,16.72
2019-04-03T16:13:37.943Z,16.70
2019-04-03T16:16:09.745Z,16.62
2019-04-03T16:18:41.484Z,16.43
2019-04-03T16:21:13.351Z,16.23
2019-04-03T16:23:45.328Z,15.28
2019-04-03T16:26:17.081Z,14.31
2019-04-03T16:28:48.891Z,14.53
2019-04-03T16:31:21.793Z,14.37
2019-04-03T16:33:55.132Z,14.09
2019-04-03T16:36:27.031Z,14.21
2019-04-03T16:39:01.102Z,14.17
2019-04-03T16:41:33.719Z,14.17
2019-04-03T16:44:06.396Z,14.56
2019-04-03T16:46:38.173Z,14.42
2019-04-03T16:49:10.418Z,13.82
2019-04-03T16:51:42.490Z,13.03
2019-04-03T16:54:14.385Z,12.38
2019-04-03T16:56:46.990Z,11.51
2019-04-03T16:59:19.693Z,11.13
2019-04-03T17:01:51.504Z,10.49
2019-04-03T17:04:27.128Z,9.95
2019-04-03T17:06:56.961Z,9.47
2019-04-03T17:09:28.803Z,8.68
2019-04-03T17:12:01.111Z,8.51
2019-04-03T17:14:33.131Z,8.10
2019-04-03T17:17:04.992Z,8.04
2019-04-03T17:19:37.290Z,7.21
2019-04-03T17:22:09.478Z,6.81
2019-04-03T17:24:46.441Z,6.86
2019-04-03T17:27:15.392Z,7.01
2019-04-03T17:29:48.113Z,7.10
2019-04-03T17:32:19.943Z,7.21
2019-04-03T17:34:51.669Z,7.05
2019-04-03T17:37:27.101Z,6.83
2019-04-03T17:39:58.584Z,6.46
2019-04-03T17:42:30.309Z,6.27
2019-04-03T17:45:02.182Z,6.24
2019-04-03T17:47:34.171Z,6.15
2019-04-03T17:50:06.744Z,6.02
2019-04-03T17:52:39.567Z,6.23
2019-04-03T17:55:11.930Z,6.10
2019-04-03T17:57:45.271Z,6.26
2019-04-03T18:00:20.976Z,6.09
2019-04-03T18:02:53.527Z,5.65
2019-04-03T18:05:26.118Z,5.62
2019-04-03T18:07:58.883Z,5.40
2019-04-03T18:10:31.285Z,5.34
2019-04-03T18:13:03.217Z,5.23
2019-04-03T18:15:35.100Z,5.26
2019-04-03T18:18:06.913Z,5.30
2019-04-03T18:20:38.744Z,5.35
2019-04-03T18:23:11.448Z,5.20
2019-04-03T18:25:44.228Z,5.36
2019-04-03T18:28:15.955Z,4.99
2019-04-03T18:30:48.232Z,5.09
2019-04-03T18:33:20.032Z,5.27
2019-04-03T18:35:51.779Z,5.27
2019-04-03T18:38:23.756Z,5.25
2019-04-03T18:40:55.578Z,5.36
2019-04-03T18:43:27.304Z,5.06
2019-04-03T18:46:00.230Z,5.17
2019-04-03T18:48:32.040Z,4.97
2019-04-03T18:51:06.432Z,5.08
2019-04-03T18:53:38.880Z,5.16
2019-04-03T18:56:11.743Z,4.90
2019-04-03T18:58:44.025Z,4.76
2019-04-03T19:01:17.175Z,5.36
2019-04-03T19:03:49.150Z,5.18
2019-04-03T19:06:20.950Z,5.34
2019-04-03T19:08:52.675Z,5.30
2019-04-03T19:11:24.832Z,5.04
2019-04-03T19:13:56.567Z,5.33
2019-04-03T19:16:29.777Z,5.39
2019-04-03T19:19:07.806Z,5.30
2019-04-03T19:21:35.729Z,5.31
2019-04-03T19:24:07.552Z,5.27
2019-04-03T19:26:40.370Z,4.80
2019-04-03T19:29:12.142Z,5.10
2019-04-03T19:31:43.865Z,5.22
2019-04-03T19:34:19.612Z,5.04
2019-04-03T19:36:49.145Z,5.03
2019-04-03T19:39:20.901Z,4.95
2019-04-03T19:41:52.774Z,4.77
2019-04-03T19:44:24.490Z,4.65
2019-04-03T19:46:56.310Z,4.64
2019-04-03T19:49:28.242Z,4.54
2019-04-03T19:52:00.039Z,4.47
2019-04-03T19:54:31.761Z,4.46
2019-04-03T19:57:03.516Z,4.55
2019-04-03T19:59:35.304Z,4.58
2019-04-03T20:02:09.340Z,4.63
2019-04-03T20:04:40.924Z,4.57
2019-04-03T20:07:12.834Z,4.57
2019-04-03T20:09:44.835Z,4.60
2019-04-03T20:12:17.750Z,4.65
2019-04-03T20:14:57.989Z,4.71
2019-04-03T20:17:24.523Z,4.73
2019-04-03T20:19:57.919Z,4.67
2019-04-03T20:22:31.479Z,4.35
2019-04-03T20:25:03.223Z,4.59
2019-04-03T20:27:35.130Z,4.61
2019-04-03T20:30:07.548Z,4.54
2019-04-03T20:32:40.726Z,4.30
2019-04-03T20:35:12.988Z,4.32
2019-04-03T20:37:44.758Z,4.27
2019-04-03T20:40:16.689Z,4.38
2019-04-03T20:42:48.525Z,4.48
2019-04-03T20:45:20.486Z,4.40
2019-04-03T20:47:52.263Z,4.40
2019-04-03T20:50:24.088Z,4.48
2019-04-03T20:52:57.096Z,4.31
2019-04-03T20:55:29.379Z,4.31
2019-04-03T20:58:01.267Z,4.42
2019-04-03T21:00:33.147Z,4.57
2019-04-03T21:03:05.002Z,4.47
2019-04-03T21:05:36.793Z,4.48
2019-04-03T21:08:09.848Z,4.46
2019-04-03T21:10:41.905Z,4.49
2019-04-03T21:13:15.446Z,4.40
2019-04-03T21:15:47.122Z,4.51
2019-04-03T21:18:20.694Z,4.33
2019-04-03T21:20:52.810Z,4.56
2019-04-03T21:23:26.738Z,4.54
2019-04-03T21:25:58.659Z,4.49
2019-04-03T21:28:30.466Z,4.18
2019-04-03T21:31:02.184Z,4.41
2019-04-03T21:33:33.901Z,4.52
2019-04-03T21:36:07.083Z,4.39
2019-04-03T21:38:39.935Z,4.50
2019-04-03T21:41:12.869Z,4.41
2019-04-03T21:43:44.592Z,4.17
2019-04-03T21:46:16.644Z,4.57
2019-04-03T21:48:48.375Z,4.53
2019-04-03T21:51:20.870Z,4.66
2019-04-03T21:53:55.839Z,4.55
2019-04-03T21:56:26.554Z,4.64
2019-04-03T21:58:58.338Z,4.62
2019-04-03T22:01:30.138Z,4.45
2019-04-03T22:04:01.952Z,4.55
2019-04-03T22:06:33.744Z,4.50
2019-04-03T22:09:10.622Z,4.61
2019-04-03T22:11:42.747Z,4.29
2019-04-03T22:14:14.481Z,4.60
2019-04-03T22:16:46.234Z,4.67
2019-04-03T22:19:17.972Z,4.69
2019-04-03T22:21:49.678Z,4.64
2019-04-03T22:24:21.577Z,4.34
2019-04-03T22:26:53.300Z,4.40
2019-04-03T22:29:25.030Z,4.31
2019-04-03T22:31:57.914Z,4.63
2019-04-03T22:34:29.902Z,4.48
2019-04-03T22:37:04.541Z,4.63
2019-04-03T22:39:37.048Z,4.62
2019-04-03T22:42:09.357Z,4.63
2019-04-03T22:44:41.097Z,4.50
2019-04-03T22:47:12.823Z,4.47
2019-04-03T22:49:44.590Z,4.55
2019-04-03T22:52:16.310Z,4.39
2019-04-03T22:54:48.047Z,4.38
2019-04-03T22:57:20.227Z,4.32
2019-04-03T22:59:54.483Z,4.39
2019-04-03T23:02:25.562Z,4.51
2019-04-03T23:04:57.419Z,4.52
2019-04-03T23:07:29.143Z,4.46
2019-04-03T23:10:01.008Z,4.47
2019-04-03T23:12:33.314Z,4.40
2019-04-03T23:15:08.616Z,4.52
2019-04-03T23:17:39.830Z,4.45
2019-04-03T23:20:11.803Z,4.36
2019-04-03T23:22:43.525Z,4.31
2019-04-03T23:25:15.259Z,4.30
2019-04-03T23:27:47.101Z,4.26
2019-04-03T23:30:19.178Z,4.21
2019-04-03T23:32:50.960Z,4.36
2019-04-03T23:35:22.767Z,4.34
2019-04-03T23:37:55.802Z,4.25
2019-04-03T23:40:28.170Z,4.22
2019-04-03T23:43:00.475Z,4.23
2019-04-03T23:45:32.511Z,4.22
2019-04-03T23:48:04.313Z,4.13
2019-04-03T23:50:36.132Z,4.24
2019-04-03T23:53:07.848Z,4.11
2019-04-03T23:55:39.930Z,4.14
2019-04-03T23:58:12.290Z,4.06
